This is the latest recevied weather packets stored in our database for station/object KN6KDD. If no packets are shown the sender has not sent any weather packets the latest 1 day(s).
| Time | Temp. | Humidity | Pressure | Rain* | Wind** | Luminosity | Snow |
|---|---|---|---|---|---|---|---|
| 1778045144 | 11.67° C | 93% | 1358 hPa | 0 mm | 0 m/s | 0 W/m² | - |
| 1778044841 | 11.67° C | 93% | 1357.8 hPa | 0 mm | 1.34 m/s, 320° | 0 W/m² | - |
| 1778044538 | 11.67° C | 92% | 1357.5 hPa | 0 mm | 1.34 m/s, 321° | 0 W/m² | - |
| 1778044235 | 11.67° C | 92% | 1357.8 hPa | 0 mm | 0.89 m/s, 255° | 0 W/m² | - |
| 1778043933 | 11.67° C | 91% | 1357.5 hPa | 0 mm | 0.89 m/s, 251° | 0 W/m² | - |
| 1778043630 | 11.67° C | 92% | 1357.5 hPa | 0 mm | 0.45 m/s, 264° | 0 W/m² | - |
| 1778043326 | 11.67° C | 91% | 1357.5 hPa | 0 mm | 0.89 m/s, 266° | 0 W/m² | - |
| 1778043023 | 11.67° C | 90% | 1357.7 hPa | 0 mm | 1.34 m/s, 245° | 0 W/m² | - |
| 1778042721 | 12.22° C | 90% | 1357.4 hPa | 0 mm | 0.89 m/s, 250° | 0 W/m² | - |
| 1778042418 | 12.22° C | 90% | 1357.4 hPa | 0 mm | 0.89 m/s, 250° | 0 W/m² | - |
| 1778042115 | 12.22° C | 90% | 1357.3 hPa | 0 mm | 0.89 m/s, 267° | 0 W/m² | - |
| 1778041813 | 11.67° C | 89% | 1357.4 hPa | 0 mm | 0 m/s | 0 W/m² | - |
| 1778041512 | 12.22° C | 89% | 1357.4 hPa | 0 mm | 0 m/s | 0 W/m² | - |
| 1778041210 | 12.22° C | 88% | 1357.1 hPa | 0 mm | 0.89 m/s, 135° | 0 W/m² | - |
| 1778040908 | 12.22° C | 89% | 1357 hPa | 0 mm | 0.45 m/s, 282° | 0 W/m² | - |
| 1778040604 | 12.22° C | 89% | 1356.8 hPa | 0 mm | 0.45 m/s, 322° | 0 W/m² | - |
| 1778040302 | 12.22° C | 88% | 1356.9 hPa | 0 mm | 1.34 m/s, 31° | 0 W/m² | - |
| 1778039998 | 12.22° C | 89% | 1356.8 hPa | 0 mm | 0.89 m/s, 17° | 0 W/m² | - |
| 1778039695 | 12.22° C | 88% | 1356.8 hPa | 0 mm | 0 m/s | 0 W/m² | - |
| 1778039391 | 12.22° C | 88% | 1356.9 hPa | 0 mm | 0.45 m/s, 305° | 0 W/m² | - |
| 1778039089 | 12.22° C | 88% | 1356.4 hPa | 0 mm | 0.89 m/s, 348° | 0 W/m² | - |
| 1778038786 | 12.22° C | 88% | 1356.5 hPa | 0 mm | 1.34 m/s, 347° | 0 W/m² | - |
| 1778038484 | 12.22° C | 88% | 1356.1 hPa | 0 mm | 0.89 m/s, 349° | 0 W/m² | - |
| 1778038180 | 12.22° C | 87% | 1356.2 hPa | 0 mm | 1.34 m/s, 0° | 0 W/m² | - |
| 1778037877 | 12.78° C | 88% | 1356.4 hPa | 0 mm | 1.34 m/s, 5° | 0 W/m² | - |
* Rain latest hour (hover to see other rain measurements)
** Current wind speed in m/s (hover to see current wind gust speed)